METAR Data
IDs: Format: Raw Decoded Include TAF

Data at: 1623 UTC 26 Sep 2021

KERV 261615Z AUTO 15010KT 10SM CLR 25/15 A3016 RMK AO2 T02470145
KERV 261555Z AUTO 12006KT 10SM CLR 23/15 A3016 RMK AO2 T02330149
KERV 261535Z AUTO 14004KT 10SM CLR 22/15 A3017 RMK AO2 T02240147
KERV 261515Z AUTO 00000KT 10SM CLR 22/15 A3017 RMK AO2 T02200150
KERV 261455Z AUTO 00000KT 10SM CLR 19/14 A3016 RMK AO2 T01910136
KERV 261435Z AUTO 00000KT 10SM CLR 17/12 A3016 RMK AO2 T01700122
KERV 261415Z AUTO 00000KT 10SM CLR 16/12 A3016 RMK AO2 T01560119
KERV 261355Z AUTO 00000KT 10SM CLR 14/11 A3015 RMK AO2 T01400111
KERV 261335Z AUTO 00000KT 10SM CLR 12/10 A3016 RMK AO2 T01200099
KERV 261315Z AUTO 00000KT 10SM CLR 11/09 A3015 RMK AO2 T01060090
KERV 261255Z AUTO 00000KT 10SM CLR 11/09 A3015 RMK AO2 T01060091
KERV 261235Z AUTO 00000KT 10SM CLR 11/09 A3014 RMK AO2 T01060089

KT82 261615Z AUTO 18006KT 10SM CLR 25/12 A3016 RMK AO2 T02510115
KT82 261555Z AUTO 17007KT 10SM CLR 25/12 A3016 RMK AO2 T02460122
KT82 261535Z AUTO 21006KT 10SM CLR 24/13 A3017 RMK AO2 T02380129
KT82 261515Z AUTO 22004KT 10SM CLR 23/14 A3017 RMK AO2 T02260139
KT82 261455Z AUTO 20003KT 10SM CLR 21/14 A3017 RMK AO2 T02060135
KT82 261435Z AUTO 00000KT 10SM CLR 19/13 A3017 RMK AO2 T01860126
KT82 261415Z AUTO 00000KT 10SM CLR 17/12 A3016 RMK AO2 T01680116
KT82 261355Z AUTO 00000KT 10SM CLR 15/11 A3016 RMK AO2 T01470105
KT82 261335Z AUTO 00000KT 10SM CLR 13/10 A3016 RMK AO2 T01330103
KT82 261315Z AUTO 31003KT 10SM CLR 12/09 A3016 RMK AO2 T01180094
KT82 261255Z AUTO 00000KT 10SM CLR 11/09 A3015 RMK AO2 T01100088
KT82 261235Z AUTO 31003KT 10SM CLR 10/09 A3014 RMK AO2 T01030085

KHDO 261551Z AUTO VRB03KT 10SM CLR 24/15 A3015 RMK AO2 SLP196 T02440150 TSNO
KHDO 261451Z AUTO 00000KT 10SM CLR 22/15 A3015 RMK AO2 SLP195 T02220150 51013 TSNO
KHDO 261351Z AUTO 01003KT 10SM CLR 19/13 A3013 RMK AO2 SLP191 T01890128 TSNO
KHDO 261251Z AUTO 36007KT 10SM CLR 13/10 A3012 RMK AO2 SLP189 T01330100 TSNO

KCVB 261614Z AUTO 11003KT CLR 27/13 A3015 RMK AO2 PWINO
KCVB 261554Z AUTO 09003KT CLR 26/14 A3016 RMK AO2 PWINO
KCVB 261534Z AUTO 20003KT CLR 25/14 A3016 RMK AO2 PWINO
KCVB 261514Z AUTO 00000KT CLR 24/14 A3017 RMK AO2 PWINO
KCVB 261454Z AUTO 00000KT CLR 23/14 A3016 RMK AO2 PWINO
KCVB 261434Z AUTO 30003KT CLR 22/14 A3016 RMK AO2 PWINO
KCVB 261414Z AUTO 30004KT CLR 20/13 A3015 RMK AO2 PWINO
KCVB 261354Z AUTO 29003KT CLR 19/13 A3015 RMK AO2 PWINO
KCVB 261334Z AUTO 30004KT CLR 17/13 A3014 RMK AO2 PWINO
KCVB 261314Z AUTO 30004KT CLR 16/13 A3014 RMK AO2 PWINO
KCVB 261255Z AUTO 30005KT CLR 15/12 A3014 RMK AO2 PWINO
KCVB 261234Z AUTO 31006KT CLR 14/12 A3013 RMK AO2 PWINO

KJCT 261551Z AUTO 27003KT 10SM CLR 24/12 A3016 RMK AO2 SLP180 T02390117 TSNO $
KJCT 261451Z AUTO VRB03KT 10SM CLR 21/11 A3017 RMK AO2 SLP183 T02110111 51009 TSNO $
KJCT 261351Z AUTO 00000KT 7SM CLR 16/08 A3017 RMK AO2 SLP185 T01560078 TSNO $
KJCT 261251Z AUTO 27003KT 10SM CLR 11/06 A3015 RMK AO2 SLP183 T01110061 TSNO $